createdAt,value
2022-09-28T00:01:30.094Z,0.88
2022-09-28T00:03:58.292Z,0.90
2022-09-28T00:06:34.044Z,0.80
2022-09-28T00:09:08.039Z,0.75
2022-09-28T00:11:35.102Z,0.80
2022-09-28T00:14:03.600Z,0.90
2022-09-28T00:16:40.195Z,0.85
2022-09-28T00:19:15.241Z,0.50
2022-09-28T00:21:49.077Z,0.70
2022-09-28T00:24:15.967Z,0.90
2022-09-28T00:27:01.079Z,0.90
2022-09-28T00:29:40.088Z,0.70
2022-09-28T00:32:12.257Z,1.10
2022-09-28T00:34:49.100Z,1.20
2022-09-28T00:37:22.135Z,1.00
2022-09-28T00:39:49.439Z,1.20
2022-09-28T00:42:32.102Z,1.20
2022-09-28T00:47:47.111Z,0.90
2022-09-28T00:50:19.874Z,1.10
2022-09-28T00:53:03.117Z,0.90
2022-09-28T00:55:45.117Z,1.00
2022-09-28T00:58:26.160Z,0.90
2022-09-28T01:01:01.249Z,1.80
2022-09-28T01:03:35.122Z,1.52
2022-09-28T01:06:10.136Z,1.73
2022-09-28T01:08:39.011Z,2.60
2022-09-28T01:11:12.196Z,2.70
2022-09-28T01:13:47.149Z,3.83
2022-09-28T01:16:28.903Z,3.70
2022-09-28T01:19:22.168Z,5.55
2022-09-28T01:22:14.144Z,5.28
2022-09-28T01:24:45.710Z,4.45
2022-09-28T01:27:42.190Z,5.13
2022-09-28T01:30:24.172Z,4.97
2022-09-28T01:33:05.182Z,5.00
2022-09-28T01:35:43.331Z,3.83
2022-09-28T01:38:26.214Z,3.90
2022-09-28T01:41:01.195Z,3.25
2022-09-28T01:43:30.210Z,3.45
2022-09-28T01:46:11.213Z,2.90
2022-09-28T01:49:11.188Z,2.45
2022-09-28T01:52:01.199Z,2.10
2022-09-28T01:54:37.124Z,1.73
2022-09-28T01:57:18.194Z,1.80
2022-09-28T02:00:04.240Z,1.63
2022-09-28T02:02:40.122Z,1.50
2022-09-28T02:05:30.235Z,1.42
2022-09-28T02:08:17.236Z,1.10
2022-09-28T02:11:28.240Z,1.08
2022-09-28T02:14:20.247Z,0.80
2022-09-28T02:17:01.252Z,0.60
2022-09-28T02:19:40.269Z,1.10
2022-09-28T02:22:23.328Z,0.82
2022-09-28T02:25:15.272Z,0.65
2022-09-28T02:28:03.276Z,0.80
2022-09-28T02:30:37.276Z,0.65
2022-09-28T02:33:21.273Z,0.50
2022-09-28T02:35:48.112Z,0.50
2022-09-28T02:38:22.289Z,0.30
2022-09-28T02:41:04.800Z,0.40
2022-09-28T02:43:53.284Z,0.30
2022-09-28T02:46:36.286Z,0.30
2022-09-28T02:49:21.317Z,0.30
2022-09-28T02:52:30.305Z,0.40
2022-09-28T02:55:19.283Z,0.30
2022-09-28T02:58:06.982Z,0.40
2022-09-28T03:00:47.464Z,0.40
2022-09-28T03:03:39.655Z,0.47
2022-09-28T03:06:47.341Z,0.50
2022-09-28T03:09:23.039Z,0.40
2022-09-28T03:12:00.348Z,0.30
2022-09-28T03:14:28.940Z,0.40
2022-09-28T03:17:02.370Z,0.57
2022-09-28T03:19:39.361Z,0.38
2022-09-28T03:22:12.369Z,0.50
2022-09-28T03:24:46.361Z,0.57
2022-09-28T03:27:19.346Z,0.50
2022-09-28T03:29:46.145Z,0.40
2022-09-28T03:32:19.376Z,0.32
2022-09-28T03:34:46.350Z,0.25
2022-09-28T03:37:19.371Z,0.20
2022-09-28T03:39:46.202Z,0.50
2022-09-28T03:42:19.386Z,0.10
2022-09-28T03:44:52.365Z,0.28
2022-09-28T03:47:19.555Z,0.22
2022-09-28T03:49:59.412Z,0.22
2022-09-28T03:52:26.287Z,0.30
2022-09-28T03:54:53.046Z,0.40
2022-09-28T03:57:26.401Z,0.30
2022-09-28T03:59:59.400Z,0.20
2022-09-28T04:02:26.256Z,0.60
2022-09-28T04:04:59.436Z,0.40
2022-09-28T04:07:30.763Z,0.20
2022-09-28T04:09:58.192Z,0.30
2022-09-28T04:12:31.397Z,0.10
2022-09-28T04:14:58.198Z,0.20
2022-09-28T04:17:25.115Z,0.20
2022-09-28T04:19:58.422Z,0.22
2022-09-28T04:22:31.446Z,0.20
2022-09-28T04:24:58.418Z,0.40
2022-09-28T04:27:50.476Z,0.50
2022-09-28T04:30:17.457Z,0.30
2022-09-28T04:32:53.456Z,0.25
2022-09-28T04:35:20.296Z,0.40
2022-09-28T04:37:47.087Z,0.40
2022-09-28T04:40:20.505Z,0.30
2022-09-28T04:42:56.976Z,0.30
2022-09-28T04:45:32.511Z,0.30
2022-09-28T04:48:05.450Z,0.30
2022-09-28T04:50:40.487Z,0.28
2022-09-28T04:53:07.307Z,0.20
2022-09-28T04:55:34.079Z,0.32
2022-09-28T04:58:10.509Z,0.52
2022-09-28T05:00:43.553Z,0.57
2022-09-28T05:03:16.544Z,0.40
2022-09-28T05:05:46.697Z,0.40
2022-09-28T05:08:20.497Z,0.50
2022-09-28T05:10:47.421Z,0.60
2022-09-28T05:13:21.525Z,0.52
2022-09-28T05:16:11.096Z,0.50
2022-09-28T05:18:38.099Z,0.50
2022-09-28T05:21:19.644Z,0.50
2022-09-28T05:23:47.407Z,0.60
2022-09-28T05:26:21.568Z,0.60
2022-09-28T05:28:54.557Z,0.70
2022-09-28T05:31:27.665Z,0.60
2022-09-28T05:34:05.788Z,0.50
2022-09-28T05:36:39.585Z,0.60
2022-09-28T05:39:06.813Z,0.30
2022-09-28T05:41:54.558Z,0.50
2022-09-28T05:44:34.547Z,0.60
2022-09-28T05:47:07.585Z,0.40
2022-09-28T05:49:40.592Z,0.50
2022-09-28T05:52:14.588Z,0.60
2022-09-28T05:54:41.534Z,0.70
2022-09-28T05:57:08.312Z,0.50
2022-09-28T05:59:44.576Z,0.50
2022-09-28T06:02:17.653Z,0.47
2022-09-28T06:04:44.510Z,0.68
2022-09-28T06:07:18.745Z,0.77
2022-09-28T06:09:51.608Z,0.70
2022-09-28T06:12:24.737Z,0.70
2022-09-28T06:14:51.492Z,0.57
2022-09-28T06:17:18.316Z,0.80
2022-09-28T06:19:51.627Z,1.52
2022-09-28T06:22:18.470Z,1.58
2022-09-28T06:24:51.657Z,1.52
2022-09-28T06:27:18.460Z,1.50
2022-09-28T06:29:52.613Z,1.50
2022-09-28T06:32:19.729Z,1.30
2022-09-28T06:34:56.185Z,1.20
2022-09-28T06:37:23.488Z,1.20
2022-09-28T06:39:56.656Z,1.33
2022-09-28T06:42:23.435Z,1.10
2022-09-28T06:44:56.662Z,1.73
2022-09-28T06:47:29.665Z,1.40
2022-09-28T06:49:56.427Z,1.20
2022-09-28T06:52:23.300Z,1.23
2022-09-28T06:54:56.687Z,1.10
2022-09-28T06:57:29.691Z,1.00
2022-09-28T07:00:02.660Z,1.25
2022-09-28T07:02:32.461Z,1.33
2022-09-28T07:05:05.683Z,1.42
2022-09-28T07:07:33.094Z,1.27
2022-09-28T07:10:06.691Z,1.20
2022-09-28T07:12:35.843Z,1.05
2022-09-28T07:15:09.695Z,1.20
2022-09-28T07:17:47.678Z,1.38
2022-09-28T07:20:24.769Z,1.00
2022-09-28T07:23:15.005Z,1.00
2022-09-28T07:25:55.788Z,1.02
2022-09-28T07:28:22.759Z,1.00
2022-09-28T07:30:50.132Z,1.05
2022-09-28T07:33:24.755Z,1.05
2022-09-28T07:35:55.754Z,0.90
2022-09-28T07:38:29.760Z,0.93
2022-09-28T07:41:12.074Z,0.90
2022-09-28T07:43:46.761Z,1.10
2022-09-28T07:46:13.541Z,1.20
2022-09-28T07:48:42.823Z,0.90
2022-09-28T07:51:16.791Z,1.00
2022-09-28T07:53:49.765Z,0.85
2022-09-28T07:56:18.283Z,0.95
2022-09-28T07:58:53.826Z,0.93
2022-09-28T08:01:27.994Z,1.02
2022-09-28T08:04:02.784Z,1.10
2022-09-28T08:06:30.546Z,0.70
2022-09-28T08:09:06.799Z,0.80
2022-09-28T08:11:33.606Z,0.60
2022-09-28T08:14:06.747Z,0.50
2022-09-28T08:16:40.881Z,0.65
2022-09-28T08:19:07.719Z,0.60
2022-09-28T08:21:52.848Z,0.65
2022-09-28T08:24:20.125Z,0.47
2022-09-28T08:26:53.828Z,0.50
2022-09-28T08:29:26.848Z,0.28
2022-09-28T08:32:01.690Z,0.28
2022-09-28T08:34:40.673Z,0.40
2022-09-28T08:37:18.864Z,0.40
2022-09-28T08:39:45.657Z,0.50
2022-09-28T08:42:36.850Z,0.40
2022-09-28T08:45:15.365Z,0.40
2022-09-28T08:48:25.853Z,0.50
2022-09-28T08:51:14.767Z,0.68
2022-09-28T08:54:30.285Z,0.57
2022-09-28T08:57:11.892Z,0.50
2022-09-28T08:59:59.842Z,0.50
2022-09-28T09:02:40.924Z,0.50
2022-09-28T09:05:20.911Z,0.70
2022-09-28T09:08:14.875Z,0.40
2022-09-28T09:11:13.902Z,0.60
2022-09-28T09:13:59.344Z,0.40
2022-09-28T09:16:47.931Z,0.20
2022-09-28T09:20:00.893Z,0.40
2022-09-28T09:22:45.897Z,0.40
2022-09-28T09:26:02.893Z,0.40
2022-09-28T09:28:54.983Z,0.32
2022-09-28T09:31:46.893Z,0.30
2022-09-28T09:34:42.938Z,0.30
2022-09-28T09:37:19.200Z,0.28
2022-09-28T09:40:31.006Z,0.20
2022-09-28T09:43:32.982Z,0.40
2022-09-28T09:46:22.014Z,0.40
2022-09-28T09:49:07.965Z,0.40
2022-09-28T09:52:07.931Z,0.50
2022-09-28T09:54:45.954Z,0.80
2022-09-28T09:57:25.974Z,0.68
2022-09-28T09:59:53.584Z,0.40
2022-09-28T10:02:37.109Z,0.30
2022-09-28T10:05:19.991Z,0.40
2022-09-28T10:07:49.949Z,0.30
2022-09-28T10:10:39.949Z,0.30
2022-09-28T10:13:06.765Z,0.32
2022-09-28T10:15:48.971Z,0.40
2022-09-28T10:18:19.162Z,0.30
2022-09-28T10:20:52.988Z,0.20
2022-09-28T10:23:34.021Z,0.30
2022-09-28T10:26:05.596Z,0.17
2022-09-28T10:29:02.013Z,0.20
2022-09-28T10:31:38.177Z,0.30
2022-09-28T10:34:13.013Z,0.15
2022-09-28T10:37:02.046Z,0.10
2022-09-28T10:39:31.343Z,0.20
2022-09-28T10:42:13.245Z,0.20
2022-09-28T10:44:56.231Z,0.20
2022-09-28T10:47:32.049Z,0.20
2022-09-28T10:49:59.574Z,0.20
2022-09-28T10:52:46.044Z,0.10
2022-09-28T10:55:23.341Z,0.10
2022-09-28T10:57:57.072Z,0.20
2022-09-28T11:00:31.651Z,0.10
2022-09-28T11:03:06.074Z,0.13
2022-09-28T11:05:34.024Z,0.20
2022-09-28T11:08:14.056Z,0.22
2022-09-28T11:10:42.879Z,0.30
2022-09-28T11:13:17.081Z,0.10
2022-09-28T11:15:44.430Z,0.35
2022-09-28T11:18:40.116Z,0.22
2022-09-28T11:21:22.111Z,0.30
2022-09-28T11:24:05.110Z,0.52
2022-09-28T11:26:37.791Z,0.40
2022-09-28T11:29:14.099Z,0.30
2022-09-28T11:31:40.958Z,0.20
2022-09-28T11:34:31.461Z,0.28
2022-09-28T11:37:26.129Z,0.40
2022-09-28T11:40:35.538Z,0.30
2022-09-28T11:43:25.135Z,0.38
2022-09-28T11:46:01.412Z,0.20
2022-09-28T11:48:46.136Z,0.30
2022-09-28T11:51:29.131Z,0.20
2022-09-28T11:54:09.146Z,0.30
2022-09-28T11:56:50.158Z,0.20
2022-09-28T11:59:20.332Z,0.30
2022-09-28T12:01:56.151Z,0.30
2022-09-28T12:04:55.167Z,0.20
2022-09-28T12:07:38.566Z,0.28
2022-09-28T12:10:20.162Z,0.10
2022-09-28T12:13:08.138Z,0.22
2022-09-28T12:16:27.671Z,0.22
2022-09-28T12:19:20.279Z,0.30
2022-09-28T12:21:55.039Z,0.30
2022-09-28T12:24:39.216Z,0.40
2022-09-28T12:27:15.037Z,0.20
2022-09-28T12:30:07.220Z,0.20
2022-09-28T12:32:50.892Z,0.20
2022-09-28T12:35:43.224Z,0.15
2022-09-28T12:38:16.214Z,0.10
2022-09-28T12:41:08.192Z,0.10
2022-09-28T12:43:44.529Z,0.20
2022-09-28T12:46:30.246Z,0.10
2022-09-28T12:52:59.418Z,0.30
2022-09-28T12:56:14.691Z,0.20
2022-09-28T12:58:59.995Z,0.50
2022-09-28T13:02:03.834Z,0.60
2022-09-28T13:04:55.908Z,0.85
2022-09-28T13:08:00.277Z,1.02
2022-09-28T13:10:36.060Z,0.50
2022-09-28T13:13:43.255Z,0.88
2022-09-28T13:16:38.258Z,0.52
2022-09-28T13:19:14.673Z,0.70
2022-09-28T13:22:22.284Z,1.00
2022-09-28T13:24:57.320Z,0.50
2022-09-28T13:27:43.287Z,0.28
2022-09-28T13:30:15.357Z,3.72
2022-09-28T13:32:50.292Z,1.40
2022-09-28T13:35:26.291Z,0.65
2022-09-28T13:38:24.286Z,0.50
2022-09-28T13:41:06.649Z,0.82
2022-09-28T13:44:17.317Z,0.55
2022-09-28T13:47:20.940Z,0.20
2022-09-28T13:50:11.601Z,0.20
2022-09-28T13:53:10.298Z,0.70
2022-09-28T13:55:49.024Z,0.40
2022-09-28T13:58:31.308Z,0.50
2022-09-28T14:01:10.679Z,0.40
2022-09-28T14:03:59.323Z,0.57
2022-09-28T14:06:31.191Z,1.23
2022-09-28T14:09:30.347Z,1.40
2022-09-28T14:12:07.315Z,1.25
2022-09-28T14:14:56.347Z,3.30
2022-09-28T14:17:27.192Z,1.50
2022-09-28T14:20:17.387Z,0.82
2022-09-28T14:23:05.556Z,0.47
2022-09-28T14:25:42.379Z,0.40
2022-09-28T14:28:55.374Z,0.28
2022-09-28T14:34:02.073Z,0.40
2022-09-28T14:37:07.437Z,0.47
2022-09-28T14:40:01.406Z,0.47
2022-09-28T14:42:28.818Z,0.50
2022-09-28T14:45:26.373Z,0.45
2022-09-28T14:48:14.179Z,0.30
2022-09-28T14:50:47.391Z,0.30
2022-09-28T14:53:20.942Z,0.30
2022-09-28T14:56:06.432Z,0.38
2022-09-28T14:58:44.459Z,0.10
2022-09-28T15:01:26.421Z,0.30
2022-09-28T15:04:06.440Z,0.30
2022-09-28T15:06:48.825Z,0.50
2022-09-28T15:09:34.408Z,0.10
2022-09-28T15:15:08.420Z,0.32
2022-09-28T15:17:40.064Z,0.20
2022-09-28T15:20:37.532Z,0.20
2022-09-28T15:23:04.399Z,0.20
2022-09-28T15:25:32.694Z,0.20
2022-09-28T15:28:13.456Z,0.22
2022-09-28T15:30:40.329Z,0.47
2022-09-28T15:34:08.448Z,0.20
2022-09-28T15:36:48.451Z,0.30
2022-09-28T15:39:46.218Z,0.22
2022-09-28T15:42:24.475Z,0.30
2022-09-28T15:45:26.593Z,0.30
2022-09-28T15:48:22.459Z,0.30
2022-09-28T15:51:17.472Z,0.47
2022-09-28T15:54:10.481Z,0.40
2022-09-28T15:56:56.911Z,0.50
2022-09-28T15:59:50.473Z,4.20
2022-09-28T16:02:29.516Z,1.10
2022-09-28T16:05:05.507Z,0.77
2022-09-28T16:07:47.526Z,0.65
2022-09-28T16:10:21.558Z,0.68
2022-09-28T16:12:55.065Z,0.77
2022-09-28T16:15:44.565Z,0.70
2022-09-28T16:18:26.518Z,0.50
2022-09-28T16:20:56.236Z,0.43
2022-09-28T16:23:40.517Z,0.50
2022-09-28T16:26:26.602Z,0.50
2022-09-28T16:29:00.510Z,0.65
2022-09-28T16:31:34.005Z,0.80
2022-09-28T16:34:26.579Z,0.50
2022-09-28T16:36:53.579Z,0.93
2022-09-28T16:39:27.561Z,0.70
2022-09-28T16:42:06.568Z,0.50
2022-09-28T16:44:43.579Z,0.50
2022-09-28T16:47:16.558Z,0.40
2022-09-28T16:49:49.594Z,0.70
2022-09-28T16:52:42.609Z,0.90
2022-09-28T16:55:38.765Z,0.80
2022-09-28T17:00:43.578Z,0.50
2022-09-28T17:03:16.024Z,0.50
2022-09-28T17:05:49.598Z,0.70
2022-09-28T17:08:18.428Z,0.55
2022-09-28T17:11:24.710Z,0.80
2022-09-28T17:13:53.574Z,1.00
2022-09-28T17:16:49.767Z,0.70
2022-09-28T17:19:24.368Z,0.70
2022-09-28T17:21:58.646Z,0.88
2022-09-28T17:24:31.620Z,0.70
2022-09-28T17:27:00.721Z,0.70
2022-09-28T17:29:34.665Z,0.50
2022-09-28T17:32:01.682Z,0.68
2022-09-28T17:34:35.639Z,0.90
2022-09-28T17:37:02.735Z,0.70
2022-09-28T17:39:38.708Z,1.20
2022-09-28T17:42:05.718Z,0.88
2022-09-28T17:44:38.799Z,0.88
2022-09-28T17:47:06.759Z,0.90
2022-09-28T17:49:33.562Z,0.80
2022-09-28T17:52:06.657Z,0.60
2022-09-28T17:54:34.620Z,0.60
2022-09-28T17:57:07.751Z,0.50
2022-09-28T17:59:34.616Z,0.70
2022-09-28T18:02:03.224Z,0.60
2022-09-28T18:04:51.207Z,0.60
2022-09-28T18:07:18.825Z,0.60
2022-09-28T18:09:52.672Z,0.60
2022-09-28T18:12:25.741Z,0.77
2022-09-28T18:14:53.266Z,0.60
2022-09-28T18:17:20.184Z,0.68
2022-09-28T18:19:53.802Z,0.90
2022-09-28T18:22:27.007Z,0.90
2022-09-28T18:25:00.807Z,2.10
2022-09-28T18:27:30.127Z,2.72
2022-09-28T18:29:57.233Z,3.97
2022-09-28T18:32:30.826Z,3.70
2022-09-28T18:34:57.651Z,3.58
2022-09-28T18:37:24.494Z,3.28
2022-09-28T18:39:57.990Z,3.17
2022-09-28T18:42:25.343Z,2.53
2022-09-28T18:44:58.739Z,2.70
2022-09-28T18:47:33.809Z,1.92
2022-09-28T18:50:00.720Z,2.00
2022-09-28T18:52:27.615Z,1.70
2022-09-28T18:55:01.810Z,1.80
2022-09-28T18:57:28.663Z,1.92
2022-09-28T19:00:01.819Z,1.50
2022-09-28T19:02:34.386Z,1.60
2022-09-28T19:05:07.800Z,1.55
2022-09-28T19:07:35.088Z,1.90
2022-09-28T19:10:08.803Z,1.98
2022-09-28T19:12:35.658Z,1.70
2022-09-28T19:15:08.774Z,1.85
2022-09-28T19:17:35.643Z,1.60
2022-09-28T19:20:08.815Z,1.55
2022-09-28T19:22:35.655Z,1.50
2022-09-28T19:25:08.855Z,1.58
2022-09-28T19:27:42.821Z,1.20
2022-09-28T19:30:16.866Z,1.30
2022-09-28T19:32:50.843Z,1.70
2022-09-28T19:35:18.375Z,1.77
2022-09-28T19:37:52.824Z,2.03
2022-09-28T19:40:19.722Z,1.90
2022-09-28T19:42:52.825Z,1.98
2022-09-28T19:45:25.907Z,1.80
2022-09-28T19:47:59.529Z,2.20
2022-09-28T19:50:26.434Z,2.05
2022-09-28T19:52:59.850Z,2.83
2022-09-28T19:55:31.913Z,2.60
2022-09-28T19:58:06.855Z,2.72
2022-09-28T20:00:33.690Z,2.10
2022-09-28T20:03:06.925Z,2.10
2022-09-28T20:05:33.772Z,2.20
2022-09-28T20:08:06.890Z,1.88
2022-09-28T20:10:40.906Z,2.40
2022-09-28T20:13:13.903Z,2.10
2022-09-28T20:15:41.638Z,2.03
2022-09-28T20:18:15.961Z,2.42
2022-09-28T20:20:42.915Z,2.03
2022-09-28T20:23:15.897Z,2.08
2022-09-28T20:25:42.697Z,1.95
2022-09-28T20:28:15.920Z,2.70
2022-09-28T20:30:42.866Z,2.42
2022-09-28T20:33:27.456Z,2.35
2022-09-28T20:35:56.297Z,2.40
2022-09-28T20:38:29.911Z,2.20
2022-09-28T20:41:07.910Z,2.10
2022-09-28T20:43:41.926Z,2.20
2022-09-28T20:46:13.518Z,2.58
2022-09-28T20:48:52.295Z,2.87
2022-09-28T20:51:27.629Z,2.42
2022-09-28T20:54:05.477Z,3.03
2022-09-28T20:56:39.049Z,2.80
2022-09-28T20:59:20.509Z,2.40
2022-09-28T21:01:49.571Z,2.22
2022-09-28T21:04:26.188Z,2.17
2022-09-28T21:07:01.042Z,2.20
2022-09-28T21:09:37.132Z,2.00
2022-09-28T21:12:05.908Z,1.90
2022-09-28T21:14:41.314Z,2.13
2022-09-28T21:17:22.005Z,2.50
2022-09-28T21:19:54.991Z,2.05
2022-09-28T21:22:21.766Z,2.10
2022-09-28T21:24:54.976Z,2.13
2022-09-28T21:27:21.793Z,1.80
2022-09-28T21:29:55.001Z,2.00
2022-09-28T21:32:23.219Z,2.35
2022-09-28T21:35:23.157Z,2.35
2022-09-28T21:37:56.186Z,2.20
2022-09-28T21:40:29.248Z,2.35
2022-09-28T21:43:03.258Z,2.10
2022-09-28T21:45:32.163Z,2.00
2022-09-28T21:48:06.274Z,1.98
2022-09-28T21:50:33.261Z,2.13
2022-09-28T21:53:01.836Z,1.63
2022-09-28T21:55:35.280Z,1.70
2022-09-28T21:58:01.976Z,2.25
2022-09-28T22:00:28.747Z,2.00
2022-09-28T22:03:02.257Z,1.95
2022-09-28T22:05:29.100Z,2.30
2022-09-28T22:07:55.843Z,1.90
2022-09-28T22:10:29.258Z,1.90
2022-09-28T22:13:02.410Z,1.80
2022-09-28T22:15:30.288Z,1.77
2022-09-28T22:17:57.759Z,2.10
2022-09-28T22:20:31.248Z,1.90
2022-09-28T22:22:57.974Z,1.77
2022-09-28T22:25:31.288Z,2.00
2022-09-28T22:27:58.075Z,1.80
2022-09-28T22:30:31.371Z,1.95
2022-09-28T22:32:58.174Z,1.75
2022-09-28T22:35:24.985Z,2.03
2022-09-28T22:37:58.372Z,1.73
2022-09-28T22:40:25.292Z,2.20
2022-09-28T22:42:52.118Z,2.03
2022-09-28T22:45:26.431Z,1.48
2022-09-28T22:47:53.154Z,1.77
2022-09-28T22:50:20.028Z,1.83
2022-09-28T22:52:55.281Z,1.67
2022-09-28T22:55:22.141Z,2.00
2022-09-28T22:57:48.873Z,1.70
2022-09-28T23:00:22.356Z,1.52
2022-09-28T23:02:55.046Z,1.70
2022-09-28T23:05:21.791Z,1.60
2022-09-28T23:07:55.417Z,1.63
2022-09-28T23:10:22.393Z,1.60
2022-09-28T23:12:49.298Z,1.65
2022-09-28T23:15:22.348Z,1.90
2022-09-28T23:17:59.354Z,1.67
2022-09-28T23:20:26.104Z,1.65
2022-09-28T23:22:52.934Z,1.92
2022-09-28T23:25:27.340Z,1.90
2022-09-28T23:27:54.365Z,1.90
2022-09-28T23:30:21.526Z,1.75
2022-09-28T23:32:57.334Z,1.70
2022-09-28T23:35:24.059Z,1.92
2022-09-28T23:37:58.399Z,1.83
2022-09-28T23:40:25.158Z,2.28
2022-09-28T23:42:58.369Z,2.30
2022-09-28T23:45:25.160Z,2.00
2022-09-28T23:47:58.358Z,2.17
2022-09-28T23:50:25.409Z,2.42
2022-09-28T23:52:58.446Z,2.05
2022-09-28T23:55:31.408Z,2.08
2022-09-28T23:58:05.385Z,2.00
